Time;durP1;ratioP1;P1;durP2;ratioP2;P2;SDS_P1;SDS_P2;PMS_P1;PMS_P2;Temp;Humidity;BMP_temperature;BMP_pressure;BME280_temperature;BME280_humidity;BME280_pressure;Samples;Min_cycle;Max_cycle;Signal;HPM_P1;HPM_P2
2022/01/11 00:00:31;;;;;;;28.27;16.00;;;0.50;99.90;;;;;;5069473;28;20047;-66
2022/01/11 00:02:57;;;;;;;28.70;18.38;;;0.40;99.90;;;;;;5071551;28;20048;-66
2022/01/11 00:05:34;;;;;;;25.00;15.07;;;0.40;99.90;;;;;;5070697;28;20121;-66
2022/01/11 00:08:00;;;;;;;32.30;19.77;;;0.40;99.90;;;;;;5071213;28;20062;-65
2022/01/11 00:10:30;;;;;;;24.80;14.80;;;0.40;99.90;;;;;;5069613;28;20040;-66
2022/01/11 00:12:57;;;;;;;32.20;20.02;;;0.30;99.90;;;;;;5102996;28;20056;-65
2022/01/11 00:15:23;;;;;;;32.95;18.55;;;0.30;99.90;;;;;;5088953;28;20067;-65
2022/01/11 00:17:49;;;;;;;28.85;20.00;;;0.30;99.90;;;;;;5090484;28;20516;-65
2022/01/11 00:20:17;;;;;;;28.02;18.38;;;0.30;99.90;;;;;;5077107;28;20053;-66
2022/01/11 00:25:25;;;;;;;27.67;19.10;;;0.30;99.90;;;;;;5084775;28;20131;-66
2022/01/11 00:27:51;;;;;;;28.27;18.23;;;0.30;99.90;;;;;;5067080;28;20600;-65
2022/01/11 00:30:17;;;;;;;31.65;20.95;;;0.20;99.90;;;;;;5064999;28;20131;-66
2022/01/11 00:32:48;;;;;;;28.20;17.75;;;0.20;99.90;;;;;;5069128;28;20512;-66
2022/01/11 00:35:16;;;;;;;27.33;16.92;;;0.20;99.90;;;;;;5071732;28;20490;-66
2022/01/11 00:37:43;;;;;;;31.10;19.73;;;0.50;99.90;;;;;;5068675;28;20086;-66
2022/01/11 00:40:09;;;;;;;30.98;18.23;;;0.30;99.90;;;;;;5070131;28;20093;-65
2022/01/11 00:42:35;;;;;;;32.25;18.00;;;0.20;99.90;;;;;;5069966;28;20139;-66
2022/01/11 00:45:04;;;;;;;32.00;20.17;;;0.20;99.90;;;;;;5074355;28;20072;-66
2022/01/11 00:47:29;;;;;;;27.77;18.95;;;0.10;99.90;;;;;;5090535;28;20040;-66
2022/01/11 00:49:55;;;;;;;;;;;0.10;99.90;;;;;;5074310;28;20554;-65
2022/01/11 00:52:21;;;;;;;;;;;0.10;99.90;;;;;;5071124;28;20010;-66
2022/01/11 00:54:47;;;;;;;;;;;0.10;99.90;;;;;;5069979;28;19920;-66
2022/01/11 00:57:13;;;;;;;;;;;0.10;99.90;;;;;;5071673;28;20300;-65
2022/01/11 00:59:38;;;;;;;;;;;0.00;99.90;;;;;;5064651;28;19932;-65
2022/01/11 01:02:04;;;;;;;;;;;0.00;99.90;;;;;;5051626;28;19932;-65
2022/01/11 01:04:30;;;;;;;;;;;0.00;99.90;;;;;;5055920;28;19931;-65
2022/01/11 01:06:55;;;;;;;;;;;0.00;99.90;;;;;;5084075;28;19920;-65
2022/01/11 01:09:22;;;;;;;;;;;0.40;99.90;;;;;;5081305;28;19932;-66
2022/01/11 01:11:47;;;;;;;;;;;0.00;99.90;;;;;;5074612;28;19924;-65
2022/01/11 01:14:13;;;;;;;;;;;0.00;99.90;;;;;;5074210;28;19920;-65
2022/01/11 01:16:39;;;;;;;;;;;0.00;99.90;;;;;;5078242;28;19973;-65
2022/01/11 01:19:05;;;;;;;;;;;0.00;99.90;;;;;;5086144;28;19920;-66
2022/01/11 01:21:37;;;;;;;;;;;0.10;99.90;;;;;;5074697;28;19924;-66
2022/01/11 01:24:03;;;;;;;;;;;0.10;99.90;;;;;;5074627;28;19998;-66
2022/01/11 01:26:31;;;;;;;;;;;0.20;99.90;;;;;;5074381;28;20281;-66
2022/01/11 01:28:58;;;;;;;;;;;0.20;99.90;;;;;;5090548;28;20115;-66
2022/01/11 01:31:24;;;;;;;;;;;0.20;99.90;;;;;;5073403;28;19963;-66
2022/01/11 01:33:50;;;;;;;;;;;0.20;99.90;;;;;;5107182;28;19971;-65
2022/01/11 01:36:15;;;;;;;;;;;0.20;99.90;;;;;;5056113;28;20305;-67
2022/01/11 01:38:41;;;;;;;;;;;0.20;99.90;;;;;;5087054;28;19931;-65
2022/01/11 01:41:14;;;;;;;;;;;0.30;99.90;;;;;;5076959;28;19972;-65
2022/01/11 01:43:39;;;;;;;;;;;0.20;99.90;;;;;;5073780;28;19931;-66
2022/01/11 01:46:05;;;;;;;;;;;0.20;99.90;;;;;;5074176;28;20297;-66
2022/01/11 01:48:31;;;;;;;;;;;0.30;99.90;;;;;;5079318;28;19931;-65
2022/01/11 01:50:57;;;;;;;;;;;0.40;99.90;;;;;;5073627;28;19927;-66
2022/01/11 01:53:23;;;;;;;;;;;0.30;99.90;;;;;;5074222;28;19924;-66
2022/01/11 01:55:49;;;;;;;;;;;0.30;99.90;;;;;;5073700;28;20266;-66
2022/01/11 01:58:15;;;;;;;;;;;0.50;99.90;;;;;;5076236;28;19928;-66
2022/01/11 02:00:45;;;;;;;;;;;0.30;99.90;;;;;;5077550;28;19920;-66
2022/01/11 02:03:12;;;;;;;;;;;0.30;99.90;;;;;;5073450;28;19916;-66
2022/01/11 02:05:39;;;;;;;;;;;0.40;99.90;;;;;;5074060;28;19921;-66
2022/01/11 02:08:08;;;;;;;;;;;0.40;99.90;;;;;;5073234;28;20007;-66
2022/01/11 02:10:35;;;;;;;;;;;0.40;99.90;;;;;;5075998;28;19924;-65
2022/01/11 02:13:01;;;;;;;;;;;0.40;99.90;;;;;;5072795;28;20357;-65
2022/01/11 02:15:27;;;;;;;;;;;0.30;99.90;;;;;;5073750;28;19926;-65
2022/01/11 02:17:53;;;;;;;;;;;0.30;99.90;;;;;;5105472;28;19924;-66
2022/01/11 02:20:18;;;;;;;;;;;0.30;99.90;;;;;;5071965;28;20314;-64
2022/01/11 02:22:44;;;;;;;;;;;0.20;99.90;;;;;;5073406;28;20105;-64
2022/01/11 02:25:10;;;;;;;;;;;0.20;99.90;;;;;;5072201;28;19920;-64
2022/01/11 02:27:36;;;;;;;;;;;0.20;99.90;;;;;;5073116;28;19931;-63
2022/01/11 02:30:02;;;;;;;;;;;0.20;99.90;;;;;;5072035;28;19978;-63
2022/01/11 02:32:28;;;;;;;;;;;0.10;99.90;;;;;;5073109;28;19920;-64
2022/01/11 02:34:53;;;;;;;;;;;0.10;99.90;;;;;;5072882;28;19946;-64
2022/01/11 02:37:19;;;;;;;;;;;0.00;99.90;;;;;;5072661;28;19974;-63
2022/01/11 02:39:45;;;;;;;;;;;0.00;99.90;;;;;;5074268;28;19924;-66
2022/01/11 02:42:11;;;;;;;;;;;-0.10;99.90;;;;;;5092951;28;19931;-65
2022/01/11 02:44:37;;;;;;;;;;;0.50;99.90;;;;;;5093292;28;19924;-66
2022/01/11 02:47:02;;;;;;;;;;;-0.10;99.90;;;;;;5087552;28;20296;-65
2022/01/11 02:49:28;;;;;;;;;;;-0.10;99.90;;;;;;5072282;28;20011;-63
2022/01/11 02:51:54;;;;;;;;;;;-0.10;99.90;;;;;;5121400;27;19924;-66
2022/01/11 02:54:20;;;;;;;;;;;-0.20;99.90;;;;;;5092561;28;19920;-64
2022/01/11 02:56:46;;;;;;;;;;;-0.20;99.90;;;;;;5092912;28;19965;-66
2022/01/11 02:59:12;;;;;;;;;;;-0.20;99.90;;;;;;5070422;28;20331;-63
2022/01/11 03:01:37;;;;;;;;;;;-0.20;99.90;;;;;;5082917;28;19924;-65
2022/01/11 03:04:03;;;;;;;;;;;-0.10;99.90;;;;;;5091536;28;19927;-65
2022/01/11 03:06:28;;;;;;;;;;;-0.20;99.90;;;;;;5092750;28;20368;-63
2022/01/11 03:08:54;;;;;;;;;;;-0.20;99.90;;;;;;5079933;28;19928;-65
2022/01/11 03:11:21;;;;;;;;;;;-0.10;99.90;;;;;;5076451;28;19931;-65
2022/01/11 03:13:47;;;;;;;;;;;-0.10;99.90;;;;;;5092237;28;19931;-64
2022/01/11 03:16:15;;;;;;;;;;;-0.10;99.90;;;;;;5092654;28;19924;-63
2022/01/11 03:18:42;;;;;;;;;;;-0.10;99.90;;;;;;5084573;28;19973;-65
2022/01/11 03:21:07;;;;;;;;;;;-0.10;99.90;;;;;;5070429;28;19925;-65
2022/01/11 03:23:33;;;;;;;;;;;0.40;99.90;;;;;;5091455;28;19920;-65
2022/01/11 03:26:02;;;;;;;;;;;0.00;99.90;;;;;;5091941;28;19990;-66
2022/01/11 03:28:28;;;;;;;;;;;0.00;99.90;;;;;;5091571;28;20442;-63
2022/01/11 03:30:53;;;;;;;;;;;-0.10;99.90;;;;;;5064294;28;19920;-63
2022/01/11 03:33:19;;;;;;;;;;;0.00;99.90;;;;;;5071696;28;19924;-65
2022/01/11 03:35:45;;;;;;;;;;;0.00;99.90;;;;;;5071991;28;19927;-66
2022/01/11 03:38:12;;;;;;;;;;;0.00;99.90;;;;;;5071494;28;19923;-64
2022/01/11 03:40:39;;;;;;;;;;;0.00;99.90;;;;;;5071699;28;19920;-64
2022/01/11 03:43:05;;;;;;;;;;;0.00;99.90;;;;;;5072007;28;19916;-63
2022/01/11 03:45:31;;;;;;;;;;;-0.10;99.90;;;;;;5058466;28;19920;-64
2022/01/11 03:47:58;;;;;;;;;;;0.00;99.90;;;;;;5067165;28;20050;-66
2022/01/11 03:50:23;;;;;;;;;;;0.00;99.90;;;;;;5061176;28;19916;-63
2022/01/11 03:52:58;;;;;;;;;;;0.00;99.90;;;;;;5105280;28;19920;-63
2022/01/11 03:55:42;;;;;;;;;;;0.00;99.90;;;;;;5071765;28;19920;-65
2022/01/11 03:58:08;;;;;;;;;;;-0.10;99.90;;;;;;5071537;28;19920;-65
2022/01/11 04:00:33;;;;;;;;;;;-0.10;99.90;;;;;;5071443;28;20367;-66
2022/01/11 04:02:59;;;;;;;;;;;-0.10;99.90;;;;;;5070480;28;19916;-67
2022/01/11 04:05:25;;;;;;;;;;;0.20;99.90;;;;;;5089013;28;20329;-63
2022/01/11 04:07:50;;;;;;;;;;;-0.10;99.90;;;;;;5091645;28;19989;-63
2022/01/11 04:10:17;;;;;;;;;;;-0.10;99.90;;;;;;5079502;28;19966;-64
2022/01/11 04:12:43;;;;;;;;;;;-0.10;99.90;;;;;;5071391;28;19968;-63
2022/01/11 04:15:08;;;;;;;;;;;-0.10;99.90;;;;;;5083114;28;19955;-65
2022/01/11 04:17:34;;;;;;;;;;;-0.10;99.90;;;;;;5071431;28;19974;-63
2022/01/11 04:19:59;;;;;;;;;;;-0.10;99.90;;;;;;5069467;28;19960;-65
2022/01/11 04:22:25;;;;;;;;;;;0.20;99.90;;;;;;5071333;28;19917;-65
2022/01/11 04:24:51;;;;;;;;;;;-0.10;99.90;;;;;;5059673;28;19927;-66
2022/01/11 04:27:16;;;;;;;;;;;-0.20;99.90;;;;;;5091192;28;19993;-66
2022/01/11 04:29:42;;;;;;;;;;;-0.20;99.90;;;;;;5082897;28;20003;-65
2022/01/11 04:32:08;;;;;;;;;;;0.20;99.90;;;;;;5069007;28;19916;-65
2022/01/11 04:34:33;;;;;;;;;;;-0.20;99.90;;;;;;5070619;28;19920;-65
2022/01/11 04:36:59;;;;;;;;;;;-0.20;99.90;;;;;;5074828;28;20002;-65
2022/01/11 04:39:24;;;;;;;;;;;-0.20;99.90;;;;;;5070296;28;19920;-65
2022/01/11 04:41:50;;;;;;;;;;;-0.10;99.90;;;;;;5070628;28;19934;-65
2022/01/11 04:44:16;;;;;;;;;;;-0.10;99.90;;;;;;5069707;28;20288;-65
2022/01/11 04:46:41;;;;;;;;;;;-0.10;99.90;;;;;;5087908;28;19932;-65
2022/01/11 04:49:07;;;;;;;;;;;-0.10;99.90;;;;;;5069258;28;19924;-65
2022/01/11 04:51:34;;;;;;;;;;;-0.10;99.90;;;;;;5069517;28;19950;-65
2022/01/11 04:54:00;;;;;;;;;;;-0.10;99.90;;;;;;5070426;28;19928;-65
2022/01/11 04:56:26;;;;;;;;;;;0.00;99.90;;;;;;5069938;28;20260;-65
2022/01/11 04:58:52;;;;;;;;;;;0.00;99.90;;;;;;5070427;28;19958;-65
2022/01/11 05:01:17;;;;;;;;;;;0.00;99.90;;;;;;5070298;28;19939;-66
2022/01/11 05:03:43;;;;;;;;;;;0.00;99.90;;;;;;5070763;28;20017;-65
2022/01/11 05:06:09;;;;;;;;;;;0.00;99.90;;;;;;5069897;28;19920;-65
2022/01/11 05:08:35;;;;;;;;;;;0.00;99.90;;;;;;5077997;28;19978;-65
2022/01/11 05:11:00;;;;;;;;;;;0.50;99.90;;;;;;5070967;28;19920;-65
2022/01/11 05:13:26;;;;;;;;;;;0.00;99.90;;;;;;5052590;28;20362;-64
2022/01/11 05:15:51;;;;;;;;;;;0.00;99.90;;;;;;5069092;28;19974;-65
2022/01/11 05:18:17;;;;;;;;;;;0.00;99.90;;;;;;5070826;28;20007;-65
2022/01/11 05:20:43;;;;;;;;;;;0.10;99.90;;;;;;5070326;28;19924;-66
2022/01/11 05:23:10;;;;;;;;;;;0.10;99.90;;;;;;5070578;28;20262;-65
2022/01/11 05:25:36;;;;;;;;;;;0.30;99.90;;;;;;5070562;28;19975;-65
2022/01/11 05:28:01;;;;;;;;;;;0.10;99.90;;;;;;5069613;28;20207;-65
2022/01/11 05:30:28;;;;;;;;;;;0.10;99.90;;;;;;5076458;28;19969;-65
2022/01/11 05:32:54;;;;;;;;;;;0.20;99.90;;;;;;5070526;28;19932;-65
2022/01/11 05:35:20;;;;;;;;;;;0.30;99.90;;;;;;5069809;28;20007;-66
2022/01/11 05:37:46;;;;;;;;;;;0.60;99.90;;;;;;5069660;28;20008;-65
2022/01/11 05:40:12;;;;;;;;;;;0.30;99.90;;;;;;5084733;28;19924;-66
2022/01/11 05:42:38;;;;;;;;;;;0.30;99.90;;;;;;5068526;28;19967;-65
2022/01/11 05:45:05;;;;;;;;;;;0.50;99.90;;;;;;5070379;28;19960;-65
2022/01/11 05:47:30;;;;;;;;;;;0.30;99.90;;;;;;5071158;28;19993;-65
2022/01/11 05:49:56;;;;;;;;;;;0.30;99.90;;;;;;5073430;28;19921;-65
2022/01/11 05:52:21;;;;;;;;;;;0.30;99.90;;;;;;5073002;28;19930;-65
2022/01/11 05:54:47;;;;;;;;;;;0.40;99.90;;;;;;5074289;28;19931;-65
2022/01/11 05:57:13;;;;;;;;;;;0.40;99.90;;;;;;5072733;28;19924;-65
2022/01/11 05:59:39;;;;;;;;;;;0.50;99.90;;;;;;5074086;28;19947;-66
2022/01/11 06:02:05;;;;;;;;;;;0.50;99.90;;;;;;5078683;28;19965;-65
2022/01/11 06:04:30;;;;;;;;;;;0.50;99.90;;;;;;5073627;28;19920;-65
2022/01/11 06:06:56;;;;;;;;;;;0.50;99.90;;;;;;5073985;28;19920;-65
2022/01/11 06:09:26;;;;;;;;;;;0.50;99.90;;;;;;5073139;28;20403;-65
2022/01/11 06:11:52;;;;;;;;;;;0.50;99.90;;;;;;5073833;28;19920;-65
2022/01/11 06:14:17;;;;;;;;;;;0.50;99.90;;;;;;5072805;28;19920;-65
2022/01/11 06:16:43;;;;;;;;;;;0.50;99.90;;;;;;5055440;28;19935;-66
2022/01/11 06:19:09;;;;;;;;;;;0.40;99.90;;;;;;5073517;28;19967;-65
2022/01/11 06:21:34;;;;;;;;;;;0.40;99.90;;;;;;5073884;28;19924;-64
2022/01/11 06:24:00;;;;;;;;;;;0.40;99.90;;;;;;5073441;28;20033;-64
2022/01/11 06:26:25;;;;;;;;;;;0.40;99.90;;;;;;5073054;28;20289;-64
2022/01/11 06:28:51;;;;;;;;;;;0.80;99.90;;;;;;5073480;28;19924;-64
2022/01/11 06:31:16;;;;;;;;;;;0.40;99.90;;;;;;5074347;28;20377;-64
2022/01/11 06:33:42;;;;;;;;;;;0.50;99.90;;;;;;5073307;28;20285;-63
2022/01/11 06:36:10;;;;;;;;;;;0.40;99.90;;;;;;5071694;28;20006;-64
2022/01/11 06:38:39;;;;;;;;;;;0.40;99.90;;;;;;5071563;28;19924;-64
2022/01/11 06:41:05;;;;;;;;;;;0.40;99.90;;;;;;5073468;28;19924;-64
2022/01/11 06:43:30;;;;;;;;;;;0.40;99.90;;;;;;5071680;28;19942;-66
2022/01/11 06:45:56;;;;;;;;;;;0.40;99.90;;;;;;5073262;28;19921;-63
2022/01/11 06:48:21;;;;;;;;;;;0.40;99.90;;;;;;5071865;28;20377;-65
2022/01/11 06:50:47;;;;;;;;;;;0.40;99.90;;;;;;5072549;28;19930;-63
2022/01/11 06:53:13;;;;;;;;;;;0.40;99.90;;;;;;5070951;28;19931;-62
2022/01/11 06:55:39;;;;;;;;;;;0.40;99.90;;;;;;5072417;28;19965;-68
2022/01/11 06:58:05;;;;;;;;;;;0.30;99.90;;;;;;5105280;28;19921;-64
2022/01/11 07:00:31;;;;;;;;;;;0.30;99.90;;;;;;5037078;28;19935;-64
2022/01/11 07:02:57;;;;;;;;;;;0.40;99.90;;;;;;5072423;28;19920;-63
2022/01/11 07:05:22;;;;;;;;;;;0.40;99.90;;;;;;5072787;28;20037;-65
2022/01/11 07:07:48;;;;;;;;;;;0.40;99.90;;;;;;5070546;28;19978;-64
2022/01/11 07:10:14;;;;;;;;;;;0.40;99.90;;;;;;5072381;28;19927;-63
2022/01/11 07:12:39;;;;;;;;;;;0.60;99.90;;;;;;5072017;28;19977;-63
2022/01/11 07:15:05;;;;;;;;;;;0.40;99.90;;;;;;5070583;28;20331;-63
2022/01/11 07:17:31;;;;;;;;;;;0.50;99.90;;;;;;5072113;28;19947;-63
2022/01/11 07:19:56;;;;;;;;;;;0.40;99.90;;;;;;5072078;28;19927;-64
2022/01/11 07:22:22;;;;;;;;;;;0.50;99.90;;;;;;5072384;28;19924;-63
2022/01/11 07:24:48;;;;;;;;;;;0.50;99.90;;;;;;5086316;28;20130;-63
2022/01/11 07:27:14;;;;;;;;;;;0.50;99.90;;;;;;5091257;28;19924;-63
2022/01/11 07:29:40;;;;;;;;;;;0.50;99.90;;;;;;5088841;28;19962;-64
2022/01/11 07:32:06;;;;;;;;;;;0.40;99.90;;;;;;5071865;28;20310;-64
2022/01/11 07:34:32;;;;;;;;;;;0.40;99.90;;;;;;5071121;28;19932;-65
2022/01/11 07:36:57;;;;;;;;;;;0.40;99.90;;;;;;5054377;28;20245;-63
2022/01/11 07:39:23;;;;;;;;;;;0.50;99.90;;;;;;5072013;28;20363;-63
2022/01/11 07:41:51;;;;;;;;;;;0.50;99.90;;;;;;5070215;28;19920;-63
2022/01/11 07:44:17;;;;;;;;;;;0.50;99.90;;;;;;5071771;28;19951;-66
2022/01/11 07:46:44;;;;;;;;;;;0.50;99.90;;;;;;5070289;28;19924;-65
2022/01/11 07:49:10;;;;;;;;;;;0.50;99.90;;;;;;5071657;28;19970;-65
2022/01/11 07:51:36;;;;;;;;;;;0.50;99.90;;;;;;5069858;28;19959;-65
2022/01/11 07:54:01;;;;;;;;;;;0.70;99.90;;;;;;5072125;28;20543;-65
2022/01/11 07:56:27;;;;;;;;;;;0.50;99.90;;;;;;5070889;28;19932;-65
2022/01/11 07:58:52;;;;;;;;;;;0.50;99.90;;;;;;5069448;28;20608;-66
2022/01/11 08:01:18;;;;;;;;;;;0.50;99.90;;;;;;5078940;28;19924;-65
2022/01/11 08:03:45;;;;;;;;;;;0.60;99.90;;;;;;5073965;28;19920;-64
2022/01/11 08:06:11;;;;;;;;;;;0.60;99.90;;;;;;5071013;28;20301;-64
2022/01/11 08:08:37;;;;;;;;;;;0.60;99.90;;;;;;5070324;28;19924;-66
2022/01/11 08:11:02;;;;;;;;;;;0.60;99.90;;;;;;5070106;28;19924;-66
2022/01/11 08:13:28;;;;;;;;;;;0.60;99.90;;;;;;5071492;28;19921;-65
2022/01/11 08:15:53;;;;;;;;;;;0.60;99.90;;;;;;5070090;28;19992;-64
2022/01/11 08:18:19;;;;;;;;;;;0.60;99.90;;;;;;5071429;28;20016;-65
2022/01/11 08:20:45;;;;;;;;;;;0.60;99.90;;;;;;5070357;28;20036;-64
2022/01/11 08:23:11;;;;;;;;;;;0.80;99.90;;;;;;5071213;28;20034;-64
2022/01/11 08:25:37;;;;;;;;;;;0.70;99.90;;;;;;5071040;28;20362;-64
2022/01/11 08:28:04;;;;;;;;;;;0.70;99.90;;;;;;5070927;28;19924;-64
2022/01/11 08:30:30;;;;;;;;;;;0.70;99.90;;;;;;5071033;28;19930;-64
2022/01/11 08:32:55;;;;;;;;;;;0.70;99.90;;;;;;5070866;28;19925;-64
2022/01/11 08:35:21;;;;;;;;;;;0.70;99.90;;;;;;5070242;28;19974;-64
2022/01/11 08:37:47;;;;;;;;;;;0.80;99.90;;;;;;5070335;28;19982;-64
2022/01/11 08:40:13;;;;;;;;;;;0.70;99.90;;;;;;5069653;28;20343;-64
2022/01/11 08:42:39;;;;;;;;;;;0.70;99.90;;;;;;5070903;28;20316;-64
2022/01/11 08:45:05;;;;;;;;;;;0.70;99.90;;;;;;5070133;28;19928;-65
2022/01/11 08:47:32;;;;;;;;;;;0.80;99.90;;;;;;5070325;28;19920;-65
2022/01/11 08:49:59;;;;;;;;;;;0.80;99.90;;;;;;5067510;28;19995;-65
2022/01/11 08:52:26;;;;;;;;;;;0.80;99.90;;;;;;5062823;28;19924;-63
2022/01/11 08:54:51;;;;;;;;;;;0.80;99.90;;;;;;5067830;28;20400;-65
2022/01/11 08:57:19;;;;;;;;;;;1.00;99.90;;;;;;5069776;28;19916;-65
2022/01/11 08:59:45;;;;;;;;;;;0.80;99.90;;;;;;5069081;28;19920;-65
2022/01/11 09:02:11;;;;;;;;;;;0.80;99.90;;;;;;5070550;28;19999;-64
2022/01/11 09:04:37;;;;;;;;;;;0.90;99.90;;;;;;5069598;28;20015;-65
2022/01/11 09:07:03;;;;;;;;;;;0.90;99.90;;;;;;5068294;28;20119;-65
2022/01/11 09:09:31;;;;;;;;;;;0.80;99.90;;;;;;5069863;28;19924;-65
2022/01/11 09:11:57;;;;;;;;;;;0.80;99.90;;;;;;5070323;28;20255;-65
2022/01/11 09:14:23;;;;;;;;;;;1.00;99.90;;;;;;5069556;28;20012;-65
2022/01/11 09:16:49;;;;;;;;;;;0.80;99.90;;;;;;5065433;28;20416;-65
2022/01/11 09:19:15;;;;;;;;;;;0.80;99.90;;;;;;5069352;28;19963;-65
2022/01/11 09:21:41;;;;;;;;;;;0.80;99.90;;;;;;5070922;28;20014;-65
2022/01/11 09:24:08;;;;;;;;;;;0.80;99.90;;;;;;5102866;28;20003;-64
2022/01/11 09:26:34;;;;;;;;;;;0.80;99.90;;;;;;5073280;28;19967;-64
2022/01/11 09:29:00;;;;;;;;;;;0.80;99.90;;;;;;5073789;28;19982;-64
2022/01/11 09:31:26;;;;;;;;;;;0.80;99.90;;;;;;5074380;28;19920;-64
2022/01/11 09:33:51;;;;;;;;;;;0.80;99.90;;;;;;5072468;28;19931;-64
2022/01/11 09:36:17;;;;;;;;;;;0.80;99.90;;;;;;5071823;28;19974;-65
2022/01/11 09:38:42;;;;;;;;;;;0.80;99.90;;;;;;5102327;28;19920;-65
2022/01/11 09:41:09;;;;;;;;;;;0.80;99.90;;;;;;5071929;28;20198;-64
2022/01/11 09:43:34;;;;;;;;;;;0.90;99.90;;;;;;5072351;28;19928;-64
2022/01/11 09:46:00;;;;;;;;;;;0.90;99.90;;;;;;5069903;28;20245;-64
2022/01/11 09:48:28;;;;;;;;;;;1.10;99.90;;;;;;5072376;28;19920;-64
2022/01/11 09:50:54;;;;;;;;;;;0.90;99.90;;;;;;5072245;28;19920;-64
2022/01/11 09:53:19;;;;;;;;;;;0.90;99.90;;;;;;5072177;28;19989;-64
2022/01/11 09:55:45;;;;;;;;;;;1.00;99.90;;;;;;5073299;28;19928;-65
2022/01/11 09:58:12;;;;;;;;;;;1.00;99.90;;;;;;5053804;28;20338;-63
2022/01/11 10:00:38;;;;;;;;;;;1.00;99.90;;;;;;5060008;28;19921;-64
2022/01/11 10:03:05;;;;;;;;;;;1.10;99.90;;;;;;5073379;28;19935;-63
2022/01/11 10:05:31;;;;;;;;;;;1.00;99.90;;;;;;5072925;28;19977;-64
2022/01/11 10:07:56;;;;;;;;;;;1.00;99.90;;;;;;5054582;28;19924;-64
2022/01/11 10:10:23;;;;;;;;;;;1.00;99.90;;;;;;5106275;27;20058;-64
2022/01/11 10:13:03;;;;;;;;;;;1.00;99.90;;;;;;5070193;28;20050;-65
2022/01/11 10:15:30;;;;;;;;;;;1.00;99.90;;;;;;5071774;28;20330;-64
2022/01/11 10:17:55;;;;;;;;;;;1.10;99.90;;;;;;5073389;28;19939;-65
2022/01/11 10:20:22;;;;;;;;;;;1.00;99.90;;;;;;5072790;28;19938;-65
2022/01/11 10:22:59;;;;;;;;;;;1.10;99.90;;;;;;5072954;28;19928;-64
2022/01/11 10:25:25;;;;;;;;;;;1.10;99.90;;;;;;5072578;28;19942;-63
2022/01/11 10:28:04;;;;;;;;;;;1.10;99.90;;;;;;5086490;28;19925;-64
2022/01/11 10:30:30;;;;;;;;;;;1.10;99.90;;;;;;5070899;28;19921;-65
2022/01/11 10:32:57;;;;;;;;;;;1.10;99.90;;;;;;5071356;28;20262;-68
2022/01/11 10:35:34;;;;;;;;;;;1.10;99.90;;;;;;5072844;28;20332;-65
2022/01/11 10:38:00;;;;;;;;;;;1.10;99.90;;;;;;5073097;28;19928;-64
2022/01/11 10:40:34;;;;;;;;;;;1.20;99.90;;;;;;5086242;28;19924;-66
2022/01/11 10:43:01;;;;;;;;;;;1.20;99.90;;;;;;5071785;28;20389;-65
2022/01/11 10:45:33;;;;;;;;;;;1.20;99.90;;;;;;5072513;28;20469;-65
2022/01/11 10:48:02;;;;;;;;;;;1.40;99.90;;;;;;5071099;28;19924;-68
2022/01/11 10:50:32;;;;;;;;;;;1.20;99.90;;;;;;5071879;28;20399;-65
2022/01/11 10:52:59;;;;;;;;;;;1.20;99.90;;;;;;5072860;28;19924;-65
2022/01/11 10:55:27;;;;;;;;;;;1.20;99.90;;;;;;5074544;28;20166;-64
2022/01/11 10:58:01;;;;;;;;;;;1.30;99.90;;;;;;5072828;28;19967;-64
2022/01/11 11:00:28;;;;;;;;;;;1.10;99.90;;;;;;5072464;28;19940;-66
2022/01/11 11:03:20;;;;;;;;;;;1.20;99.90;;;;;;5072096;28;19924;-65
2022/01/11 11:05:53;;;;;;;;;;;1.20;99.90;;;;;;5048023;28;19924;-63
2022/01/11 11:08:23;;;;;;;;;;;1.20;99.90;;;;;;5052750;28;19935;-63
2022/01/11 11:10:50;;;;;;;;;;;1.30;99.90;;;;;;5071103;28;20015;-63
2022/01/11 11:13:17;;;;;;;;;;;1.30;99.90;;;;;;5067761;28;19920;-64
2022/01/11 11:15:43;;;;;;;;;;;1.50;99.90;;;;;;5052679;28;20274;-65
2022/01/11 11:18:22;;;;;;;;;;;1.60;99.90;;;;;;5071152;28;19927;-64
2022/01/11 11:20:48;;;;;;;;;;;1.70;99.90;;;;;;5071689;28;19924;-64
2022/01/11 11:23:15;;;;;;;;;;;1.90;99.90;;;;;;5070469;28;19929;-64
2022/01/11 11:25:40;;;;;;;;;;;1.90;99.90;;;;;;5071424;28;19924;-63
2022/01/11 11:28:06;;;;;;;;;;;2.10;99.90;;;;;;5071011;28;19920;-63
2022/01/11 11:30:32;;;;;;;;;;;2.10;99.90;;;;;;5068354;28;19924;-64
2022/01/11 11:32:58;;;;;;;;;;;2.20;99.90;;;;;;5069988;28;19925;-64
2022/01/11 11:35:24;;;;;;;;;;;2.30;99.90;;;;;;5069331;28;19932;-62
2022/01/11 11:38:04;;;;;;;;;;;2.40;99.90;;;;;;5071367;28;19985;-63
2022/01/11 11:40:30;;;;;;;;;;;2.50;99.90;;;;;;5103899;27;19924;-63
2022/01/11 11:42:59;;;;;;;;;;;2.60;99.90;;;;;;5069216;28;20386;-63
2022/01/11 11:45:31;;;;;;;;;;;2.70;99.90;;;;;;5068486;28;19966;-63
2022/01/11 11:48:02;;;;;;;;;;;2.60;99.90;;;;;;5071675;28;19928;-63
2022/01/11 11:50:28;;;;;;;;;;;2.70;99.90;;;;;;5069089;28;20186;-63
2022/01/11 11:52:53;;;;;;;;;;;2.70;99.90;;;;;;5070110;28;20022;-64
2022/01/11 11:55:24;;;;;;;;;;;2.70;99.90;;;;;;5103944;28;19927;-63
2022/01/11 11:57:51;;;;;;;;;;;2.70;99.90;;;;;;5071515;28;20039;-64
2022/01/11 12:00:27;;;;;;;;;;;2.70;99.90;;;;;;5071697;28;19974;-64
2022/01/11 12:02:57;;;;;;;;;;;2.80;99.90;;;;;;5071262;28;19928;-64
2022/01/11 12:05:39;;;;;;;;;;;2.70;99.90;;;;;;5081701;28;19992;-64
2022/01/11 12:08:23;;;;;;;;;;;2.70;99.90;;;;;;5051407;28;20350;-64
2022/01/11 12:10:48;;;;;;;;;;;2.70;99.90;;;;;;5061330;28;19960;-64
2022/01/11 12:13:33;;;;;;;;;;;2.70;99.90;;;;;;5070532;28;19975;-64
2022/01/11 12:15:58;;;;;;;;;;;2.70;99.90;;;;;;5069155;28;20395;-64
2022/01/11 12:18:24;;;;;;;;;;;2.70;99.90;;;;;;5070871;28;19920;-64
2022/01/11 12:20:51;;;;;;;;;;;2.70;99.90;;;;;;5069456;28;20297;-64
2022/01/11 12:23:37;;;;;;;;;;;2.70;99.90;;;;;;5069231;28;19932;-63
2022/01/11 12:26:08;;;;;;;;;;;2.70;99.90;;;;;;5059931;28;19920;-63
2022/01/11 12:28:34;;;;;;;;;;;2.70;99.90;;;;;;5103659;28;19927;-65
2022/01/11 12:31:18;;;;;;;;;;;2.70;99.90;;;;;;5070790;28;20011;-66
2022/01/11 12:33:48;;;;;;;;;;;2.60;99.90;;;;;;5070656;28;19931;-64
2022/01/11 12:36:14;;;;;;;;;;;2.70;99.90;;;;;;5068935;28;20231;-64
2022/01/11 12:38:58;;;;;;;;;;;2.70;99.90;;;;;;5097195;28;19974;-65
2022/01/11 12:41:26;;;;;;;;;;;2.70;99.90;;;;;;5083813;28;19928;-65
2022/01/11 12:44:13;;;;;;;;;;;2.70;99.90;;;;;;5068549;28;19924;-64
2022/01/11 12:46:54;;;;;;;;;;;2.70;99.90;;;;;;5066909;28;19920;-65
2022/01/11 12:49:20;;;;;;;;;;;2.70;99.90;;;;;;5103159;28;19924;-65
2022/01/11 12:51:53;;;;;;;;;;;2.80;99.90;;;;;;5070091;28;20385;-65
2022/01/11 12:54:20;;;;;;;;;;;2.80;99.90;;;;;;5070323;28;20002;-64
2022/01/11 12:56:47;;;;;;;;;;;2.70;99.90;;;;;;5073277;28;20293;-65
2022/01/11 12:59:13;;;;;;;;;;;2.70;99.90;;;;;;5070410;28;19967;-64
2022/01/11 13:01:39;;;;;;;;;;;2.70;99.90;;;;;;5069973;28;20011;-64
2022/01/11 13:04:05;;;;;;;;;;;2.70;99.90;;;;;;5069896;28;20018;-64
2022/01/11 13:06:31;;;;;;;;;;;2.80;99.90;;;;;;5069903;28;20310;-64
2022/01/11 13:08:58;;;;;;;;;;;2.90;99.90;;;;;;5070366;28;19924;-64
2022/01/11 13:11:25;;;;;;;;;;;2.80;99.90;;;;;;5058564;28;19925;-63
2022/01/11 13:14:06;;;;;;;;;;;2.90;99.90;;;;;;5067074;28;19924;-63
2022/01/11 13:16:32;;;;;;;;;;;2.90;99.90;;;;;;5064854;28;19975;-68
2022/01/11 13:19:11;;;;;;;;;;;2.90;99.90;;;;;;5069419;28;19928;-64
2022/01/11 13:21:37;;;;;;;;;;;3.00;99.90;;;;;;5052313;28;19920;-64
2022/01/11 13:26:47;;;;;;;;;;;3.10;99.90;;;;;;5071917;28;20273;-64
2022/01/11 13:29:15;;;;;;;;;;;3.00;99.90;;;;;;5070342;28;19943;-64
2022/01/11 13:31:41;;;;;;;;;;;3.10;99.90;;;;;;5069907;28;20431;-64
2022/01/11 13:34:08;;;;;;;;;;;3.10;99.90;;;;;;5070549;28;19920;-63
2022/01/11 13:36:35;;;;;;;;;;;3.10;99.90;;;;;;5070242;28;20365;-64
2022/01/11 13:39:05;;;;;;;;;;;3.20;99.90;;;;;;5069531;28;19924;-65
2022/01/11 13:41:36;;;;;;;;;;;3.20;99.90;;;;;;5069658;28;20015;-65
2022/01/11 13:44:24;;;;;;;;;;;3.20;99.90;;;;;;5070250;28;19998;-64
2022/01/11 13:46:52;;;;;;;;;;;3.20;99.90;;;;;;5062998;28;19927;-64
2022/01/11 13:49:20;;;;;;;;;;;3.30;99.90;;;;;;5070110;28;19943;-63
2022/01/11 13:51:47;;;;;;;;;;;3.30;99.90;;;;;;5069976;28;19924;-64
2022/01/11 13:54:13;;;;;;;;;;;3.30;99.90;;;;;;5070213;28;19924;-63
2022/01/11 13:56:41;;;;;;;;;;;3.40;99.90;;;;;;5069986;28;19921;-64
2022/01/11 13:59:07;;;;;;;;;;;3.40;99.90;;;;;;5070160;28;19920;-64
2022/01/11 14:01:33;;;;;;;;;;;3.40;99.90;;;;;;5074781;28;19920;-64
2022/01/11 14:04:11;;;;;;;;;;;3.40;99.90;;;;;;5090670;28;20011;-64
2022/01/11 14:06:41;;;;;;;;;;;3.40;99.90;;;;;;5072011;28;20331;-64
2022/01/11 14:09:11;;;;;;;;;;;3.40;99.90;;;;;;5072705;28;19928;-64
2022/01/11 14:11:39;;;;;;;;;;;3.50;99.90;;;;;;5070290;28;20007;-65
2022/01/11 14:14:06;;;;;;;;;;;3.50;99.90;;;;;;5087958;28;19920;-64
2022/01/11 14:16:32;;;;;;;;;;;3.50;99.90;;;;;;5072318;28;20511;-65
2022/01/11 14:19:08;;;;;;;;;;;3.50;99.90;;;;;;5072936;28;20250;-65
2022/01/11 14:21:47;;;;;;;;;;;3.60;99.90;;;;;;5072068;28;19974;-64
2022/01/11 14:24:13;;;;;;;;;;;3.60;99.90;;;;;;5070426;28;19924;-63
2022/01/11 14:26:39;;;;;;;;;;;3.60;99.90;;;;;;5071733;28;19920;-64